Airfield :
LOGIN :

Register | Disclaimer

   EN    FR    IT 

 










Legend :    VFR   Marginal VFR   IFR   Intensive IFR   Very Intensive IFR
Visi :
Ceiling :
>= 8 km
>= 3000ft
5 to 8 km
1000 to 3000 ft
1500m to 5 km
500 to 1000 ft
800 to 1500m
200 to 500 ft
< 800m
< 200 ft
Symbols :   Thunderstorms  Fog  Heavy snow  Heavy precipitations  Wind > 20 kt
SIGMETs :     Misc.  Thunderstorms  Icing  Turbulence  Mountain Waves  Volcanic Ashes







- Airport Elevation : 284 ft


EGUW - RAF Wattisham

CURRENT METAR :
  • 231550Z 30014KT 9999 FEW020 14/10 Q1026 BLU NOSIG

EXPIRED METARs :
  • 231450Z 30015KT CAVOK 15/09 Q1026 BLU NOSIG
  • 231350Z 30018KT CAVOK 15/09 Q1026 BLU NOSIG

TAF TAF EGUW
Valid from the 23 at 15:00 until the 24 at 00:00 UTC


231330Z 2315/2324 29015KT CAVOK
TEMPO 2315/2317 29020G30KT
PROB40 2316/2318 SCT017
BECMG 2318/2321 BKN015
PROB30
TEMPO 2318/2324 SCT010
No reported NOTAMs for that airfield.
2 SIGMETs reported for the London FIR (EGTT) :
 
Severe turbulence
EGTT SIGMET 08 VALID 231400/231800 EGRR
EGTT LONDON FIR SEV TURB FCST WI N5400 W00200 - N5500 W00300 - N5500 E00500 - N5400 E00409 - N5400 W00200 SFC/FL060 STNR WKN=
Severe mountain waves
EGTT SIGMET 07 VALID 231400/231800 EGRR
EGTT LONDON FIR SEV MTW FCST WI N5500 E00100 - N5400 E00045 - N5400 W00245 - N5500 W00530 - N5500 E00100 FL030/220 STNR NC=



MET'MAP, your aeronautical weather chart ! - Copyright ORBIFLY December 2007 - Disclaimer

ORBIFLY MET'MAP TEAM :

Programming & Development : Alexandra Zaïnal
Concept & Development : Baudouin d'Aumeries
Co-Development & Prog : Marc-Olivier Méhu
Technical & hardware support : Manuel Goepfert

Contact : metmap@orbifly.com




SOURCES & CREDITS :

   NOAA